createdAt,value
2023-02-03T00:00:55.778Z,0.80
2023-02-03T00:04:01.310Z,0.80
2023-02-03T00:07:05.966Z,0.80
2023-02-03T00:10:12.731Z,0.80
2023-02-03T00:13:17.873Z,0.80
2023-02-03T00:16:22.985Z,0.70
2023-02-03T00:19:27.588Z,0.70
2023-02-03T00:22:32.668Z,0.70
2023-02-03T00:25:38.765Z,0.70
2023-02-03T00:28:45.425Z,0.70
2023-02-03T00:31:50.246Z,0.70
2023-02-03T00:34:55.270Z,0.68
2023-02-03T00:38:00.202Z,0.60
2023-02-03T00:41:05.916Z,0.60
2023-02-03T00:44:10.946Z,0.60
2023-02-03T00:47:16.544Z,0.60
2023-02-03T00:50:21.812Z,0.60
2023-02-03T00:53:26.727Z,0.60
2023-02-03T00:56:31.560Z,0.56
2023-02-03T00:59:37.157Z,0.54
2023-02-03T01:02:42.133Z,0.50
2023-02-03T01:05:47.176Z,0.50
2023-02-03T01:08:52.903Z,0.42
2023-02-03T01:11:57.912Z,0.40
2023-02-03T01:15:02.730Z,0.40
2023-02-03T01:18:07.980Z,0.40
2023-02-03T01:21:15.799Z,0.30
2023-02-03T01:24:20.826Z,0.30
2023-02-03T01:27:26.016Z,0.30
2023-02-03T01:30:31.155Z,0.30
2023-02-03T01:33:36.148Z,0.30
2023-02-03T01:36:41.177Z,0.28
2023-02-03T01:39:46.035Z,0.24
2023-02-03T01:42:50.934Z,0.20
2023-02-03T01:45:55.886Z,0.20
2023-02-03T01:49:10.660Z,0.20
2023-02-03T01:52:16.568Z,0.20
2023-02-03T01:55:27.576Z,0.16
2023-02-03T01:58:37.993Z,0.10
2023-02-03T02:01:43.414Z,0.10
2023-02-03T02:04:58.300Z,0.10
2023-02-03T02:08:08.016Z,0.02
2023-02-03T02:11:12.836Z,0.00
2023-02-03T02:14:18.886Z,0.00
2023-02-03T02:17:46.834Z,0.00
2023-02-03T02:21:45.454Z,0.00
2023-02-03T02:25:56.728Z,-0.10
2023-02-03T02:29:42.048Z,-0.10
2023-02-03T02:33:03.018Z,-0.10
2023-02-03T02:36:24.080Z,-0.10
2023-02-03T02:39:39.775Z,-0.10
2023-02-03T02:43:02.725Z,-0.10
2023-02-03T02:46:16.022Z,-0.10
2023-02-03T02:49:30.226Z,-0.10
2023-02-03T02:52:42.754Z,-0.10
2023-02-03T02:55:49.000Z,-0.10
2023-02-03T02:58:58.144Z,-0.10
2023-02-03T03:02:03.654Z,-0.18
2023-02-03T03:05:12.196Z,-0.20
2023-02-03T03:08:21.132Z,-0.20
2023-02-03T03:11:30.138Z,-0.20
2023-02-03T03:14:37.907Z,-0.20
2023-02-03T03:17:49.586Z,-0.20
2023-02-03T03:21:05.239Z,-0.30
2023-02-03T03:24:15.825Z,-0.30
2023-02-03T03:27:25.166Z,-0.30
2023-02-03T03:30:35.235Z,-0.30
2023-02-03T03:33:40.829Z,-0.40
2023-02-03T03:36:50.208Z,-0.40
2023-02-03T03:39:59.032Z,-0.40
2023-02-03T03:43:14.835Z,-0.50
2023-02-03T03:46:27.138Z,-0.50
2023-02-03T03:49:35.824Z,-0.50
2023-02-03T03:52:43.958Z,-0.50
2023-02-03T03:55:53.585Z,-0.60
2023-02-03T03:59:02.764Z,-0.58
2023-02-03T04:02:07.932Z,-0.60
2023-02-03T04:05:15.257Z,-0.60
2023-02-03T04:08:20.379Z,-0.54
2023-02-03T04:11:43.654Z,-0.50
2023-02-03T04:14:48.628Z,-0.50
2023-02-03T04:17:54.366Z,-0.50
2023-02-03T04:20:59.423Z,-0.50
2023-02-03T04:24:04.957Z,-0.50
2023-02-03T04:27:11.138Z,-0.50
2023-02-03T04:30:18.216Z,-0.50
2023-02-03T04:33:22.747Z,-0.50
2023-02-03T04:36:28.045Z,-0.50
2023-02-03T04:39:32.821Z,-0.50
2023-02-03T04:42:39.906Z,-0.46
2023-02-03T04:45:44.607Z,-0.40
2023-02-03T04:48:49.604Z,-0.40
2023-02-03T04:51:54.488Z,-0.42
2023-02-03T04:54:59.429Z,-0.50
2023-02-03T04:58:04.347Z,-0.50
2023-02-03T05:01:10.980Z,-0.50
2023-02-03T05:04:18.923Z,-0.52
2023-02-03T05:07:24.097Z,-0.60
2023-02-03T05:10:29.314Z,-0.60
2023-02-03T05:13:34.413Z,-0.58
2023-02-03T05:16:39.612Z,-0.60
2023-02-03T05:19:45.181Z,-0.60
2023-02-03T05:22:50.204Z,-0.60
2023-02-03T05:25:55.235Z,-0.62
2023-02-03T05:29:00.094Z,-0.70
2023-02-03T05:32:05.885Z,-0.70
2023-02-03T05:35:11.102Z,-0.70
2023-02-03T05:38:19.154Z,-0.70
2023-02-03T05:41:42.467Z,-0.70
2023-02-03T05:44:47.706Z,-0.70
2023-02-03T05:47:52.733Z,-0.70
2023-02-03T05:50:58.272Z,-0.70
2023-02-03T05:54:03.193Z,-0.70
2023-02-03T05:57:08.488Z,-0.68
2023-02-03T06:00:16.885Z,-0.60
2023-02-03T06:03:22.481Z,-0.60
2023-02-03T06:06:33.237Z,-0.54
2023-02-03T06:09:38.224Z,-0.50
2023-02-03T06:12:43.602Z,-0.44
2023-02-03T06:15:48.914Z,-0.40
2023-02-03T06:18:55.010Z,-0.40
2023-02-03T06:21:59.908Z,-0.40
2023-02-03T06:25:05.685Z,-0.32
2023-02-03T06:28:11.082Z,-0.30
2023-02-03T06:31:16.313Z,-0.30
2023-02-03T06:34:21.194Z,-0.30
2023-02-03T06:37:26.112Z,-0.32
2023-02-03T06:40:31.749Z,-0.34
2023-02-03T06:43:36.931Z,-0.40
2023-02-03T06:46:41.845Z,-0.40
2023-02-03T06:49:46.439Z,-0.36
2023-02-03T06:52:52.446Z,-0.34
2023-02-03T06:55:57.104Z,-0.30
2023-02-03T06:59:02.017Z,-0.30
2023-02-03T07:02:07.087Z,-0.30
2023-02-03T07:05:12.172Z,-0.24
2023-02-03T07:08:17.531Z,-0.20
2023-02-03T07:11:23.303Z,-0.20
2023-02-03T07:14:28.165Z,-0.16
2023-02-03T07:17:33.460Z,-0.10
2023-02-03T07:20:38.317Z,-0.10
2023-02-03T07:23:43.642Z,0.00
2023-02-03T07:26:48.575Z,0.00
2023-02-03T07:29:53.593Z,0.00
2023-02-03T07:32:58.292Z,0.02
2023-02-03T07:36:04.166Z,0.10
2023-02-03T07:39:09.034Z,0.10
2023-02-03T07:42:14.211Z,0.10
2023-02-03T07:45:21.586Z,0.14
2023-02-03T07:48:26.562Z,0.20
2023-02-03T07:51:31.641Z,0.20
2023-02-03T07:54:36.671Z,0.20
2023-02-03T07:57:42.862Z,0.30
2023-02-03T08:00:48.288Z,0.30
2023-02-03T08:03:55.122Z,0.32
2023-02-03T08:07:00.259Z,0.40
2023-02-03T08:10:07.922Z,0.42
2023-02-03T08:13:12.978Z,0.50
2023-02-03T08:16:18.266Z,0.50
2023-02-03T08:19:23.409Z,0.60
2023-02-03T08:22:28.471Z,0.60
2023-02-03T08:25:33.482Z,0.60
2023-02-03T08:28:38.470Z,0.60
2023-02-03T08:31:44.477Z,0.60
2023-02-03T08:34:50.820Z,0.60
2023-02-03T08:37:56.090Z,0.60
2023-02-03T08:41:01.374Z,0.60
2023-02-03T08:44:06.319Z,0.60
2023-02-03T08:47:12.193Z,0.50
2023-02-03T08:50:19.256Z,0.50
2023-02-03T08:53:24.148Z,0.40
2023-02-03T08:56:29.391Z,0.40
2023-02-03T08:59:35.529Z,0.30
2023-02-03T09:02:40.528Z,0.30
2023-02-03T09:05:45.460Z,0.22
2023-02-03T09:08:50.461Z,0.20
2023-02-03T09:12:01.326Z,0.20
2023-02-03T09:15:07.768Z,0.14
2023-02-03T09:18:12.744Z,0.10
2023-02-03T09:21:33.357Z,0.10
2023-02-03T09:24:42.612Z,0.10
2023-02-03T09:27:47.457Z,0.10
2023-02-03T09:30:52.421Z,0.10
2023-02-03T09:33:58.391Z,0.12
2023-02-03T09:37:04.272Z,0.16
2023-02-03T09:40:21.029Z,0.20
2023-02-03T09:43:41.589Z,0.20
2023-02-03T09:46:48.679Z,0.20
2023-02-03T09:49:58.027Z,0.20
2023-02-03T09:53:12.166Z,0.20
2023-02-03T09:56:29.614Z,0.30
2023-02-03T09:59:37.168Z,0.30
2023-02-03T10:02:57.911Z,0.30
2023-02-03T10:06:19.585Z,0.32
2023-02-03T10:09:44.905Z,0.34
2023-02-03T10:13:14.915Z,0.40
2023-02-03T10:16:47.381Z,0.40
2023-02-03T10:20:03.146Z,0.40
2023-02-03T10:23:15.518Z,0.40
2023-02-03T10:26:25.982Z,0.40
2023-02-03T10:29:38.472Z,0.40
2023-02-03T10:32:43.232Z,0.44
2023-02-03T10:35:54.218Z,0.50
2023-02-03T10:39:10.378Z,0.50
2023-02-03T10:42:17.081Z,0.50
2023-02-03T10:45:22.602Z,0.50
2023-02-03T10:48:28.402Z,0.50
2023-02-03T10:51:41.639Z,0.56
2023-02-03T10:54:46.531Z,0.60
2023-02-03T10:57:51.659Z,0.60
2023-02-03T11:01:07.193Z,0.60
2023-02-03T11:04:27.126Z,0.62
2023-02-03T11:07:31.294Z,0.70
2023-02-03T11:10:40.023Z,0.70
2023-02-03T11:13:44.885Z,0.70
2023-02-03T11:16:49.629Z,0.70
2023-02-03T11:19:59.077Z,0.68
2023-02-03T11:23:05.784Z,0.64
2023-02-03T11:26:18.504Z,0.60
2023-02-03T11:29:28.446Z,0.60
2023-02-03T11:32:38.126Z,0.60
2023-02-03T11:35:58.413Z,0.60
2023-02-03T11:39:25.692Z,0.60
2023-02-03T11:42:30.416Z,0.60
2023-02-03T11:45:42.777Z,0.60
2023-02-03T11:49:04.249Z,0.60
2023-02-03T11:52:32.731Z,0.60
2023-02-03T11:55:54.619Z,0.60
2023-02-03T11:59:31.844Z,0.60
2023-02-03T12:03:18.542Z,0.60
2023-02-03T12:06:50.215Z,0.58
2023-02-03T12:10:05.584Z,0.60
2023-02-03T12:13:32.462Z,0.50
2023-02-03T12:17:12.228Z,0.50
2023-02-03T12:20:34.860Z,0.50
2023-02-03T12:23:55.884Z,0.48
2023-02-03T12:27:20.159Z,0.50
2023-02-03T12:30:32.819Z,0.42
2023-02-03T12:33:44.857Z,0.40
2023-02-03T12:36:57.465Z,0.40
2023-02-03T12:40:14.725Z,0.40
2023-02-03T12:43:29.338Z,0.44
2023-02-03T12:46:40.972Z,0.48
2023-02-03T12:49:51.063Z,0.50
2023-02-03T12:53:05.735Z,0.50
2023-02-03T12:56:15.474Z,0.50
2023-02-03T12:59:25.874Z,0.50
2023-02-03T13:02:40.567Z,0.50
2023-02-03T13:05:55.363Z,0.50
2023-02-03T13:09:21.013Z,0.50
2023-02-03T13:12:33.925Z,0.48
2023-02-03T13:15:44.899Z,0.44
2023-02-03T13:18:58.534Z,0.44
2023-02-03T13:22:09.200Z,0.40
2023-02-03T13:25:24.992Z,0.40
2023-02-03T13:28:53.267Z,0.44
2023-02-03T13:32:16.680Z,0.50
2023-02-03T13:35:45.443Z,0.50
2023-02-03T13:39:18.264Z,0.50
2023-02-03T13:42:28.857Z,0.50
2023-02-03T13:45:43.067Z,0.50
2023-02-03T13:48:48.398Z,0.50
2023-02-03T13:51:54.820Z,0.50
2023-02-03T13:55:00.377Z,0.58
2023-02-03T13:58:18.291Z,0.60
2023-02-03T14:01:37.859Z,0.60
2023-02-03T14:04:56.393Z,0.60
2023-02-03T14:08:58.495Z,0.60
2023-02-03T14:12:58.607Z,0.68
2023-02-03T14:16:24.367Z,0.70
2023-02-03T14:19:55.748Z,0.70
2023-02-03T14:23:13.067Z,0.72
2023-02-03T14:26:28.593Z,0.76
2023-02-03T14:29:36.807Z,0.70
2023-02-03T14:32:54.218Z,0.76
2023-02-03T14:35:59.016Z,0.80
2023-02-03T14:39:38.968Z,0.80
2023-02-03T14:43:27.816Z,0.80
2023-02-03T14:47:07.900Z,0.80
2023-02-03T14:50:35.367Z,0.92
2023-02-03T14:54:18.809Z,1.10
2023-02-03T14:57:39.531Z,1.22
2023-02-03T15:00:44.870Z,1.36
2023-02-03T15:04:24.426Z,1.48
2023-02-03T15:07:44.807Z,1.56
2023-02-03T15:10:49.658Z,1.60
2023-02-03T15:13:55.734Z,1.70
2023-02-03T15:17:03.606Z,1.70
2023-02-03T15:20:33.570Z,1.80
2023-02-03T15:23:47.297Z,1.80
2023-02-03T15:26:55.537Z,1.80
2023-02-03T15:30:16.452Z,1.84
2023-02-03T15:33:22.257Z,1.86
2023-02-03T15:36:42.676Z,1.90
2023-02-03T15:40:00.272Z,1.90
2023-02-03T15:43:12.414Z,1.90
2023-02-03T15:46:26.293Z,1.90
2023-02-03T15:49:39.387Z,1.80
2023-02-03T15:52:48.593Z,1.80
2023-02-03T15:55:58.357Z,1.76
2023-02-03T15:59:04.143Z,1.70
2023-02-03T16:02:19.389Z,1.70
2023-02-03T16:05:30.218Z,1.70
2023-02-03T16:08:45.561Z,1.60
2023-02-03T16:11:50.850Z,1.60
2023-02-03T16:14:58.893Z,1.60
2023-02-03T16:18:07.085Z,1.60
2023-02-03T16:21:30.775Z,1.60
2023-02-03T16:24:42.172Z,1.60
2023-02-03T16:28:15.647Z,1.60
2023-02-03T16:31:40.486Z,1.60
2023-02-03T16:35:03.998Z,1.60
2023-02-03T16:38:36.106Z,1.64
2023-02-03T16:41:59.730Z,1.70
2023-02-03T16:45:30.991Z,1.70
2023-02-03T16:48:54.455Z,1.70
2023-02-03T16:51:59.529Z,1.80
2023-02-03T16:55:07.957Z,1.80
2023-02-03T16:58:13.538Z,1.84
2023-02-03T17:01:19.655Z,1.90
2023-02-03T17:04:25.553Z,1.90
2023-02-03T17:07:30.776Z,1.90
2023-02-03T17:10:36.868Z,1.90
2023-02-03T17:13:42.498Z,1.90
2023-02-03T17:16:47.330Z,1.90
2023-02-03T17:19:52.595Z,1.98
2023-02-03T17:22:57.905Z,2.00
2023-02-03T17:26:02.855Z,2.00
2023-02-03T17:29:09.844Z,2.00
2023-02-03T17:32:16.703Z,2.08
2023-02-03T17:35:21.888Z,2.10
2023-02-03T17:38:26.832Z,2.18
2023-02-03T17:55:07.476Z,2.50
2023-02-03T17:58:13.518Z,2.50
2023-02-03T18:01:20.758Z,2.60
2023-02-03T18:04:25.936Z,2.60
2023-02-03T18:07:30.957Z,2.60
2023-02-03T18:10:35.890Z,2.60
2023-02-03T18:13:43.825Z,2.70
2023-02-03T18:16:48.679Z,2.78
2023-02-03T18:19:56.164Z,2.82
2023-02-03T18:23:02.834Z,2.92
2023-02-03T18:26:10.294Z,3.00
2023-02-03T18:29:15.506Z,3.10
2023-02-03T18:32:21.295Z,3.20
2023-02-03T18:35:26.777Z,3.30
2023-02-03T18:38:35.876Z,3.30
2023-02-03T18:41:40.914Z,3.30
2023-02-03T18:44:46.189Z,3.30
2023-02-03T18:47:51.115Z,3.30
2023-02-03T18:50:56.212Z,3.30
2023-02-03T18:54:02.578Z,3.20
2023-02-03T18:57:12.787Z,3.20
2023-02-03T19:00:19.575Z,3.10
2023-02-03T19:03:26.274Z,3.10
2023-02-03T19:06:35.204Z,3.00
2023-02-03T19:09:43.588Z,3.00
2023-02-03T19:12:48.832Z,2.90
2023-02-03T19:15:54.241Z,2.84
2023-02-03T19:19:00.927Z,2.80
2023-02-03T19:22:06.419Z,2.72
2023-02-03T19:25:11.867Z,2.70
2023-02-03T19:28:30.535Z,2.60
2023-02-03T19:31:45.071Z,2.60
2023-02-03T19:35:01.881Z,2.56
2023-02-03T19:38:16.482Z,2.50
2023-02-03T19:44:56.125Z,2.40
2023-02-03T19:48:08.113Z,2.40
2023-02-03T19:51:19.897Z,2.40
2023-02-03T19:54:26.882Z,2.32
2023-02-03T19:57:31.927Z,2.30
2023-02-03T20:00:37.368Z,2.30
2023-02-03T20:03:43.325Z,2.30
2023-02-03T20:06:48.418Z,2.30
2023-02-03T20:09:53.324Z,2.30
2023-02-03T20:12:58.882Z,2.30
2023-02-03T20:16:05.145Z,2.40
2023-02-03T20:19:14.630Z,2.40
2023-02-03T20:22:23.356Z,2.40
2023-02-03T20:25:32.601Z,2.48
2023-02-03T20:28:39.685Z,2.50
2023-02-03T20:31:45.847Z,2.52
2023-02-03T20:34:59.544Z,2.60
2023-02-03T20:38:06.407Z,2.60
2023-02-03T20:41:16.372Z,2.62
2023-02-03T20:44:25.267Z,2.66
2023-02-03T20:47:36.352Z,2.70
2023-02-03T20:50:46.640Z,2.68
2023-02-03T20:53:53.280Z,2.62
2023-02-03T20:56:59.429Z,2.60
2023-02-03T21:00:16.040Z,2.60
2023-02-03T21:03:40.603Z,2.60
2023-02-03T21:06:45.507Z,2.60
2023-02-03T21:09:50.629Z,2.60
2023-02-03T21:12:55.968Z,2.60
2023-02-03T21:16:10.811Z,2.60
2023-02-03T21:19:29.139Z,2.60
2023-02-03T21:22:34.431Z,2.60
2023-02-03T21:25:39.608Z,2.60
2023-02-03T21:28:45.333Z,2.52
2023-02-03T21:31:50.654Z,2.50
2023-02-03T21:34:55.752Z,2.50
2023-02-03T21:38:03.505Z,2.50
2023-02-03T21:41:18.220Z,2.50
2023-02-03T21:44:31.640Z,2.46
2023-02-03T21:47:36.814Z,2.40
2023-02-03T21:50:42.294Z,2.40
2023-02-03T21:53:56.627Z,2.36
2023-02-03T21:57:01.887Z,2.36
2023-02-03T22:00:42.159Z,2.36
2023-02-03T22:03:50.936Z,2.34
2023-02-03T22:06:56.922Z,2.32
2023-02-03T22:10:02.024Z,2.30
2023-02-03T22:13:07.532Z,2.40
2023-02-03T22:16:13.872Z,2.40
2023-02-03T22:19:19.443Z,2.40
2023-02-03T22:22:24.962Z,2.40
2023-02-03T22:25:30.141Z,2.40
2023-02-03T22:28:35.433Z,2.42
2023-02-03T22:31:41.984Z,2.46
2023-02-03T22:34:51.191Z,2.50
2023-02-03T22:37:53.683Z,2.50
2023-02-03T22:40:59.071Z,2.50
2023-02-03T22:44:04.403Z,2.54
2023-02-03T22:47:09.486Z,2.58
2023-02-03T22:50:17.453Z,2.60
2023-02-03T22:53:25.872Z,2.60
2023-02-03T22:56:30.336Z,2.60
2023-02-03T22:59:35.170Z,2.60
2023-02-03T23:02:40.635Z,2.60
2023-02-03T23:05:45.692Z,2.70
2023-02-03T23:08:50.556Z,2.70
2023-02-03T23:11:55.534Z,2.70
2023-02-03T23:15:00.404Z,2.70
2023-02-03T23:18:05.892Z,2.70
2023-02-03T23:21:10.658Z,2.78
2023-02-03T23:24:16.161Z,2.80
2023-02-03T23:27:20.790Z,2.80
2023-02-03T23:30:25.862Z,2.80
2023-02-03T23:33:30.513Z,2.80
2023-02-03T23:36:35.638Z,2.80
2023-02-03T23:39:40.336Z,2.80
2023-02-03T23:42:47.747Z,2.90
2023-02-03T23:45:52.404Z,2.90
2023-02-03T23:48:57.488Z,2.94
2023-02-03T23:52:02.280Z,3.00
2023-02-03T23:55:11.729Z,3.00
2023-02-03T23:58:17.150Z,3.00
